createdAt,value
2022-11-17T00:01:56.180Z,8.30
2022-11-17T00:14:05.018Z,6.85
2022-11-17T00:28:36.270Z,7.20
2022-11-17T00:31:25.767Z,6.20
2022-11-17T00:34:11.323Z,9.48
2022-11-17T00:36:45.597Z,8.80
2022-11-17T00:39:16.859Z,7.55
2022-11-17T00:41:48.992Z,7.10
2022-11-17T00:44:19.286Z,8.77
2022-11-17T00:46:50.510Z,9.30
2022-11-17T00:49:25.394Z,9.00
2022-11-17T00:51:55.945Z,9.32
2022-11-17T00:54:26.491Z,9.70
2022-11-17T00:56:56.485Z,8.52
2022-11-17T00:59:26.497Z,8.98
2022-11-17T01:01:57.644Z,10.05
2022-11-17T01:04:27.513Z,8.57
2022-11-17T01:07:00.298Z,10.30
2022-11-17T01:09:30.715Z,6.72
2022-11-17T01:12:01.045Z,7.68
2022-11-17T01:14:34.915Z,8.38
2022-11-17T01:17:09.164Z,6.38
2022-11-17T01:19:40.618Z,7.82
2022-11-17T01:22:10.169Z,7.65
2022-11-17T01:24:42.564Z,7.13
2022-11-17T01:27:12.334Z,7.28
2022-11-17T01:29:42.080Z,7.65
2022-11-17T01:32:13.005Z,9.25
2022-11-17T01:34:47.688Z,7.95
2022-11-17T01:37:23.129Z,7.40
2022-11-17T01:39:53.210Z,6.00
2022-11-17T01:42:29.569Z,7.53
2022-11-17T01:45:06.399Z,7.15
2022-11-17T01:50:54.205Z,7.78
2022-11-17T01:53:28.728Z,9.15
2022-11-17T01:56:04.956Z,7.32
2022-11-17T01:58:42.931Z,7.30
2022-11-17T02:01:12.334Z,7.28
2022-11-17T02:03:46.117Z,6.90
2022-11-17T02:06:29.958Z,8.15
2022-11-17T02:09:03.628Z,6.95
2022-11-17T02:11:36.203Z,7.53
2022-11-17T02:14:07.087Z,7.88
2022-11-17T02:16:36.903Z,8.38
2022-11-17T02:19:08.733Z,6.97
2022-11-17T02:22:28.990Z,6.30
2022-11-17T02:25:31.908Z,6.82
2022-11-17T02:28:20.734Z,7.28
2022-11-17T02:31:09.630Z,7.07
2022-11-17T02:33:56.199Z,6.25
2022-11-17T02:36:38.173Z,7.43
2022-11-17T02:39:16.082Z,6.10
2022-11-17T02:41:55.541Z,7.40
2022-11-17T02:44:33.785Z,6.85
2022-11-17T02:47:09.378Z,8.23
2022-11-17T02:49:43.337Z,9.25
2022-11-17T02:52:13.952Z,8.65
2022-11-17T02:54:42.839Z,7.50
2022-11-17T02:57:29.981Z,8.23
2022-11-17T03:00:04.004Z,8.15
2022-11-17T03:03:11.536Z,7.78
2022-11-17T03:05:55.832Z,8.40
2022-11-17T03:08:43.620Z,8.10
2022-11-17T03:11:14.504Z,8.77
2022-11-17T03:13:55.418Z,7.97
2022-11-17T03:16:36.212Z,8.30
2022-11-17T03:19:17.637Z,8.13
2022-11-17T03:21:54.786Z,6.07
2022-11-17T03:24:31.316Z,8.48
2022-11-17T03:27:07.036Z,6.72
2022-11-17T03:29:42.402Z,7.72
2022-11-17T03:32:16.155Z,7.82
2022-11-17T03:34:53.175Z,7.80
2022-11-17T03:37:26.090Z,9.85
2022-11-17T03:39:59.632Z,7.75
2022-11-17T03:42:32.662Z,6.78
2022-11-17T03:45:10.850Z,7.10
2022-11-17T03:47:43.300Z,7.30
2022-11-17T03:50:20.042Z,8.40
2022-11-17T03:52:50.995Z,7.55
2022-11-17T03:55:20.579Z,7.10
2022-11-17T03:57:58.280Z,7.43
2022-11-17T04:00:27.272Z,7.38
2022-11-17T04:02:59.904Z,8.75
2022-11-17T04:05:29.200Z,7.78
2022-11-17T04:07:58.059Z,7.90
2022-11-17T04:10:27.121Z,8.27
2022-11-17T04:13:13.400Z,6.65
2022-11-17T04:16:01.681Z,8.13
2022-11-17T04:18:32.016Z,9.80
2022-11-17T04:21:02.318Z,9.07
2022-11-17T04:23:31.299Z,9.50
2022-11-17T04:26:17.559Z,5.78
2022-11-17T04:28:49.866Z,8.25
2022-11-17T04:31:21.502Z,7.35
2022-11-17T04:33:54.204Z,6.32
2022-11-17T04:36:25.820Z,6.45
2022-11-17T04:38:57.028Z,9.57
2022-11-17T04:41:46.814Z,7.40
2022-11-17T04:44:17.629Z,9.15
2022-11-17T04:46:47.285Z,8.00
2022-11-17T04:49:19.696Z,8.98
2022-11-17T04:51:49.819Z,8.07
2022-11-17T04:54:21.996Z,7.05
2022-11-17T04:56:50.852Z,8.10
2022-11-17T04:59:19.848Z,9.30
2022-11-17T05:01:49.051Z,8.98
2022-11-17T05:04:35.773Z,8.85
2022-11-17T05:07:05.154Z,8.65
2022-11-17T05:09:34.469Z,8.50
2022-11-17T05:12:20.418Z,7.03
2022-11-17T05:14:50.480Z,9.00
2022-11-17T05:17:18.572Z,8.95
2022-11-17T05:19:49.815Z,7.80
2022-11-17T05:22:38.519Z,8.63
2022-11-17T05:25:08.738Z,8.00
2022-11-17T05:27:37.587Z,10.93
2022-11-17T05:30:09.830Z,7.78
2022-11-17T05:32:38.611Z,8.63
2022-11-17T05:35:10.176Z,8.25
2022-11-17T05:37:38.844Z,9.02
2022-11-17T05:40:09.622Z,9.15
2022-11-17T05:42:38.341Z,8.90
2022-11-17T05:45:09.039Z,9.25
2022-11-17T05:47:38.161Z,9.35
2022-11-17T05:50:09.131Z,8.60
2022-11-17T05:52:40.813Z,10.32
2022-11-17T05:55:09.752Z,10.07
2022-11-17T05:57:39.024Z,8.20
2022-11-17T06:00:10.046Z,8.45
2022-11-17T06:02:51.207Z,8.25
2022-11-17T06:05:23.932Z,9.52
2022-11-17T06:07:54.823Z,9.00
2022-11-17T06:10:23.657Z,10.23
2022-11-17T06:12:52.626Z,9.35
2022-11-17T06:15:21.440Z,9.40
2022-11-17T06:17:55.857Z,8.93
2022-11-17T06:20:29.729Z,10.73
2022-11-17T06:23:03.912Z,8.98
2022-11-17T06:25:35.447Z,8.23
2022-11-17T06:28:09.316Z,9.38
2022-11-17T06:30:39.585Z,11.10
2022-11-17T06:33:13.306Z,9.48
2022-11-17T06:35:45.483Z,9.55
2022-11-17T06:38:14.208Z,8.90
2022-11-17T06:40:43.623Z,8.70
2022-11-17T06:43:12.561Z,11.30
2022-11-17T06:45:44.029Z,10.60
2022-11-17T06:48:15.534Z,10.57
2022-11-17T06:50:46.244Z,12.25
2022-11-17T06:53:14.979Z,11.65
2022-11-17T06:55:43.767Z,9.48
2022-11-17T06:58:12.802Z,9.60
2022-11-17T07:00:41.999Z,11.90
2022-11-17T07:03:12.186Z,9.60
2022-11-17T07:05:41.223Z,10.23
2022-11-17T07:08:11.516Z,9.90
2022-11-17T07:10:44.953Z,9.32
2022-11-17T07:13:16.776Z,9.80
2022-11-17T07:15:45.488Z,10.57
2022-11-17T07:18:14.178Z,9.93
2022-11-17T07:20:44.078Z,10.75
2022-11-17T07:23:16.334Z,10.85
2022-11-17T07:25:46.935Z,10.35
2022-11-17T07:28:19.102Z,9.20
2022-11-17T07:30:49.363Z,9.27
2022-11-17T07:33:23.456Z,9.45
2022-11-17T07:35:52.821Z,9.75
2022-11-17T07:38:25.318Z,9.38
2022-11-17T07:40:58.617Z,8.93
2022-11-17T07:43:27.396Z,6.43
2022-11-17T07:45:56.233Z,8.95
2022-11-17T07:48:25.154Z,11.00
2022-11-17T07:50:53.890Z,9.02
2022-11-17T07:53:23.984Z,8.77
2022-11-17T07:55:52.638Z,7.45
2022-11-17T07:58:21.365Z,8.77
2022-11-17T08:00:50.162Z,7.80
2022-11-17T08:03:19.038Z,8.38
2022-11-17T08:05:48.236Z,9.23
2022-11-17T08:08:17.233Z,8.02
2022-11-17T08:10:47.371Z,9.18
2022-11-17T08:13:16.223Z,7.70
2022-11-17T08:15:45.093Z,8.10
2022-11-17T08:18:14.006Z,8.38
2022-11-17T08:20:54.556Z,9.18
2022-11-17T08:23:24.974Z,9.82
2022-11-17T08:25:55.894Z,8.20
2022-11-17T08:28:24.785Z,7.75
2022-11-17T08:30:53.834Z,7.90
2022-11-17T08:33:22.545Z,8.52
2022-11-17T08:35:51.598Z,8.68
2022-11-17T08:38:20.435Z,10.80
2022-11-17T08:40:49.205Z,7.53
2022-11-17T08:43:19.454Z,9.02
2022-11-17T08:45:50.294Z,9.40
2022-11-17T08:48:19.238Z,9.80
2022-11-17T08:50:48.378Z,11.13
2022-11-17T08:53:20.064Z,8.60
2022-11-17T08:55:49.297Z,9.38
2022-11-17T08:58:19.970Z,10.00
2022-11-17T09:00:48.804Z,9.40
2022-11-17T09:03:17.657Z,8.20
2022-11-17T09:05:48.547Z,8.48
2022-11-17T09:11:09.770Z,9.90
2022-11-17T09:13:40.944Z,10.02
2022-11-17T09:16:12.783Z,8.25
2022-11-17T09:18:42.706Z,8.30
2022-11-17T09:21:16.527Z,8.80
2022-11-17T09:23:45.819Z,9.43
2022-11-17T09:26:16.921Z,9.32
2022-11-17T09:28:47.820Z,10.02
2022-11-17T09:31:20.761Z,10.60
2022-11-17T09:33:50.945Z,8.80
2022-11-17T09:36:21.448Z,10.48
2022-11-17T09:38:51.059Z,10.10
2022-11-17T09:41:28.490Z,9.57
2022-11-17T09:44:16.781Z,7.95
2022-11-17T09:47:04.555Z,7.75
2022-11-17T09:49:46.625Z,10.20
2022-11-17T09:52:24.955Z,8.25
2022-11-17T09:54:58.439Z,9.43
2022-11-17T09:57:39.206Z,9.68
2022-11-17T10:00:16.900Z,8.05
2022-11-17T10:02:54.928Z,9.25
2022-11-17T10:05:30.769Z,9.98
2022-11-17T10:08:08.397Z,9.20
2022-11-17T10:10:44.477Z,9.77
2022-11-17T10:13:25.283Z,10.23
2022-11-17T10:16:00.500Z,8.18
2022-11-17T10:18:37.883Z,9.52
2022-11-17T10:21:09.383Z,10.50
2022-11-17T10:23:46.205Z,8.80
2022-11-17T10:26:17.749Z,10.05
2022-11-17T10:28:48.503Z,8.77
2022-11-17T10:31:21.259Z,10.95
2022-11-17T10:33:54.516Z,8.40
2022-11-17T10:36:29.574Z,8.35
2022-11-17T10:39:02.932Z,7.90
2022-11-17T10:42:29.859Z,8.90
2022-11-17T10:45:04.003Z,8.45
2022-11-17T10:47:41.701Z,8.52
2022-11-17T10:50:27.640Z,8.05
2022-11-17T10:53:32.976Z,10.48
2022-11-17T10:56:14.734Z,9.52
2022-11-17T10:59:03.766Z,9.15
2022-11-17T11:01:36.560Z,7.35
2022-11-17T11:04:27.706Z,8.40
2022-11-17T11:08:35.443Z,8.32
2022-11-17T11:11:10.136Z,8.20
2022-11-17T11:13:49.393Z,8.85
2022-11-17T11:16:21.390Z,7.10
2022-11-17T11:18:54.091Z,6.10
2022-11-17T11:21:49.125Z,7.05
2022-11-17T11:24:31.043Z,7.45
2022-11-17T11:27:19.571Z,9.60
2022-11-17T11:30:03.973Z,7.70
2022-11-17T11:32:49.499Z,9.65
2022-11-17T11:35:56.711Z,8.60
2022-11-17T11:38:48.530Z,7.10
2022-11-17T11:41:37.429Z,8.43
2022-11-17T11:44:40.787Z,7.15
2022-11-17T11:47:31.559Z,9.57
2022-11-17T11:50:12.340Z,7.85
2022-11-17T11:52:49.724Z,6.82
2022-11-17T11:55:28.900Z,8.18
2022-11-17T11:58:10.527Z,8.15
2022-11-17T12:01:56.726Z,7.47
2022-11-17T12:04:43.381Z,6.97
2022-11-17T12:07:24.112Z,8.38
2022-11-17T12:10:08.513Z,8.15
2022-11-17T12:12:42.229Z,7.85
2022-11-17T12:15:33.398Z,7.63
2022-11-17T12:18:14.306Z,7.22
2022-11-17T12:20:56.709Z,8.45
2022-11-17T12:23:57.337Z,7.13
2022-11-17T12:26:34.131Z,7.75
2022-11-17T12:29:49.244Z,7.68
2022-11-17T12:32:55.800Z,9.05
2022-11-17T12:35:29.134Z,7.18
2022-11-17T12:38:43.333Z,9.15
2022-11-17T12:41:14.750Z,7.35
2022-11-17T12:43:44.207Z,9.63
2022-11-17T12:46:34.756Z,8.05
2022-11-17T12:49:21.511Z,9.23
2022-11-17T12:51:59.727Z,9.35
2022-11-17T12:54:39.614Z,8.70
2022-11-17T12:57:20.669Z,7.63
2022-11-17T13:00:08.051Z,7.70
2022-11-17T13:03:11.015Z,8.85
2022-11-17T13:05:40.789Z,9.02
2022-11-17T13:08:24.541Z,8.40
2022-11-17T13:11:06.901Z,9.35
2022-11-17T13:13:37.424Z,7.88
2022-11-17T13:16:13.148Z,8.00
2022-11-17T13:18:45.353Z,8.82
2022-11-17T13:21:32.355Z,8.27
2022-11-17T13:24:02.701Z,9.10
2022-11-17T13:26:38.398Z,6.20
2022-11-17T13:29:11.637Z,8.13
2022-11-17T13:31:42.069Z,7.93
2022-11-17T13:34:22.775Z,8.23
2022-11-17T13:36:57.686Z,8.32
2022-11-17T13:39:28.506Z,8.70
2022-11-17T13:42:00.204Z,8.32
2022-11-17T13:44:32.461Z,8.65
2022-11-17T13:47:21.308Z,8.20
2022-11-17T13:49:52.474Z,10.00
2022-11-17T13:52:43.651Z,7.40
2022-11-17T13:55:21.508Z,8.38
2022-11-17T13:57:59.668Z,9.25
2022-11-17T14:00:31.713Z,8.48
2022-11-17T14:03:04.494Z,9.55
2022-11-17T14:05:35.778Z,7.15
2022-11-17T14:08:24.038Z,7.95
2022-11-17T14:11:16.866Z,8.10
2022-11-17T14:13:49.732Z,10.52
2022-11-17T14:17:14.541Z,8.63
2022-11-17T14:19:44.308Z,9.52
2022-11-17T14:22:31.310Z,8.18
2022-11-17T14:25:02.720Z,8.15
2022-11-17T14:27:42.189Z,7.68
2022-11-17T14:30:16.005Z,7.82
2022-11-17T14:32:45.492Z,8.75
2022-11-17T14:37:51.702Z,8.18
2022-11-17T14:40:20.962Z,8.02
2022-11-17T14:42:50.102Z,8.68
2022-11-17T14:45:19.667Z,9.02
2022-11-17T14:47:50.382Z,10.05
2022-11-17T14:50:41.859Z,8.80
2022-11-17T14:53:12.949Z,9.63
2022-11-17T14:55:42.652Z,9.18
2022-11-17T14:58:12.097Z,7.47
2022-11-17T15:00:41.989Z,9.27
2022-11-17T15:03:11.426Z,10.60
2022-11-17T15:05:46.971Z,8.98
2022-11-17T15:08:18.070Z,9.38
2022-11-17T15:10:47.831Z,9.88
2022-11-17T15:13:20.113Z,9.35
2022-11-17T15:15:49.412Z,9.43
2022-11-17T15:18:18.097Z,10.10
2022-11-17T15:20:47.414Z,10.00
2022-11-17T15:23:17.323Z,10.50
2022-11-17T15:25:45.991Z,10.02
2022-11-17T15:28:20.528Z,10.70
2022-11-17T15:30:51.330Z,10.65
2022-11-17T15:33:20.118Z,11.98
2022-11-17T15:35:48.653Z,9.15
2022-11-17T15:38:18.688Z,9.40
2022-11-17T15:40:54.877Z,10.00
2022-11-17T15:43:27.748Z,11.13
2022-11-17T15:46:02.778Z,9.43
2022-11-17T15:48:33.171Z,10.73
2022-11-17T15:51:04.223Z,9.05
2022-11-17T15:53:36.706Z,10.10
2022-11-17T15:56:07.911Z,9.98
2022-11-17T15:58:37.432Z,9.05
2022-11-17T16:01:11.951Z,9.02
2022-11-17T16:03:42.306Z,10.80
2022-11-17T16:06:13.549Z,9.48
2022-11-17T16:08:43.745Z,10.60
2022-11-17T16:11:13.039Z,11.65
2022-11-17T16:13:41.827Z,11.20
2022-11-17T16:16:15.690Z,9.32
2022-11-17T16:18:44.931Z,9.35
2022-11-17T16:21:15.125Z,10.60
2022-11-17T16:23:47.655Z,10.80
2022-11-17T16:26:20.931Z,9.93
2022-11-17T16:28:49.756Z,11.32
2022-11-17T16:31:21.804Z,9.80
2022-11-17T16:33:52.202Z,11.85
2022-11-17T16:36:23.167Z,12.02
2022-11-17T16:39:00.970Z,12.30
2022-11-17T16:41:33.511Z,10.60
2022-11-17T16:44:03.448Z,11.00
2022-11-17T16:46:33.144Z,10.10
2022-11-17T16:49:04.801Z,11.90
2022-11-17T16:51:34.149Z,9.57
2022-11-17T16:54:06.331Z,9.50
2022-11-17T16:56:36.036Z,9.75
2022-11-17T16:59:04.794Z,8.68
2022-11-17T17:01:35.501Z,10.68
2022-11-17T17:04:07.566Z,9.32
2022-11-17T17:06:40.035Z,11.70
2022-11-17T17:09:12.594Z,10.48
2022-11-17T17:11:42.097Z,12.35
2022-11-17T17:14:15.316Z,11.63
2022-11-17T17:16:47.200Z,10.18
2022-11-17T17:19:17.177Z,9.63
2022-11-17T17:21:46.721Z,10.50
2022-11-17T17:24:17.064Z,11.25
2022-11-17T17:26:45.753Z,10.95
2022-11-17T17:29:14.615Z,8.00
2022-11-17T17:31:43.901Z,11.77
2022-11-17T17:34:14.058Z,11.80
2022-11-17T17:36:42.733Z,10.85
2022-11-17T17:39:16.059Z,10.60
2022-11-17T17:41:46.169Z,10.73
2022-11-17T17:44:17.727Z,9.90
2022-11-17T17:46:48.422Z,10.00
2022-11-17T17:49:18.990Z,11.02
2022-11-17T17:51:48.120Z,12.07
2022-11-17T17:54:20.893Z,10.63
2022-11-17T17:56:49.752Z,11.13
2022-11-17T17:59:19.184Z,11.98
2022-11-17T18:01:48.219Z,11.57
2022-11-17T18:04:17.466Z,10.40
2022-11-17T18:06:48.396Z,13.25
2022-11-17T18:09:20.499Z,12.18
2022-11-17T18:11:51.199Z,13.75
2022-11-17T18:14:24.697Z,11.70
2022-11-17T18:16:55.023Z,12.00
2022-11-17T18:19:28.428Z,13.57
2022-11-17T18:22:01.666Z,12.00
2022-11-17T18:24:31.697Z,12.50
2022-11-17T18:27:00.304Z,11.52
2022-11-17T18:29:29.090Z,12.25
2022-11-17T18:31:57.993Z,11.43
2022-11-17T18:34:27.514Z,13.52
2022-11-17T18:36:57.224Z,11.30
2022-11-17T18:39:28.308Z,11.90
2022-11-17T18:41:58.442Z,13.75
2022-11-17T18:44:27.556Z,14.43
2022-11-17T18:47:02.310Z,12.60
2022-11-17T18:49:32.440Z,9.05
2022-11-17T18:52:01.487Z,14.43
2022-11-17T18:54:31.748Z,11.82
2022-11-17T18:57:02.126Z,12.75
2022-11-17T18:59:31.246Z,13.90
2022-11-17T19:02:00.167Z,12.07
2022-11-17T19:04:29.825Z,12.40
2022-11-17T19:06:58.553Z,11.75
2022-11-17T19:09:27.651Z,14.38
2022-11-17T19:11:56.577Z,13.02
2022-11-17T19:14:28.239Z,13.20
2022-11-17T19:16:57.036Z,12.07
2022-11-17T19:19:26.074Z,12.70
2022-11-17T19:21:55.377Z,12.85
2022-11-17T19:24:23.859Z,11.07
2022-11-17T19:26:52.766Z,9.75
2022-11-17T19:29:22.145Z,12.05
2022-11-17T19:31:52.723Z,11.93
2022-11-17T19:34:21.305Z,12.15
2022-11-17T19:36:49.962Z,13.57
2022-11-17T19:39:19.004Z,15.75
2022-11-17T19:41:47.996Z,12.82
2022-11-17T19:44:16.579Z,14.13
2022-11-17T19:46:45.257Z,12.55
2022-11-17T19:49:15.678Z,13.68
2022-11-17T19:51:44.517Z,15.07
2022-11-17T19:54:14.846Z,11.00
2022-11-17T19:56:43.545Z,13.50
2022-11-17T19:59:15.950Z,14.13
2022-11-17T20:01:45.318Z,13.52
2022-11-17T20:04:15.539Z,13.00
2022-11-17T20:06:44.451Z,13.68
2022-11-17T20:09:15.827Z,11.98
2022-11-17T20:11:44.956Z,12.52
2022-11-17T20:14:14.618Z,13.85
2022-11-17T20:16:43.304Z,14.18
2022-11-17T20:19:14.974Z,13.48
2022-11-17T20:21:59.757Z,15.23
2022-11-17T20:24:28.874Z,12.00
2022-11-17T20:26:57.452Z,13.70
2022-11-17T20:29:26.151Z,13.07
2022-11-17T20:31:54.866Z,12.85
2022-11-17T20:34:24.987Z,12.35
2022-11-17T20:36:53.766Z,12.45
2022-11-17T20:39:22.467Z,12.35
2022-11-17T20:41:51.133Z,14.98
2022-11-17T20:44:25.611Z,14.60
2022-11-17T20:46:56.589Z,15.77
2022-11-17T20:49:28.331Z,14.43
2022-11-17T20:51:56.975Z,15.43
2022-11-17T20:54:25.609Z,13.23
2022-11-17T20:56:54.140Z,13.38
2022-11-17T20:59:23.184Z,11.02
2022-11-17T21:01:52.114Z,15.85
2022-11-17T21:04:20.726Z,15.13
2022-11-17T21:06:50.862Z,13.10
2022-11-17T21:09:19.861Z,15.00
2022-11-17T21:12:00.541Z,11.23
2022-11-17T21:14:30.541Z,15.07
2022-11-17T21:17:00.770Z,16.45
2022-11-17T21:19:32.378Z,11.77
2022-11-17T21:22:04.223Z,12.75
2022-11-17T21:24:32.853Z,14.35
2022-11-17T21:27:01.427Z,13.25
2022-11-17T21:29:30.057Z,13.32
2022-11-17T21:32:10.075Z,12.63
2022-11-17T21:34:38.945Z,14.05
2022-11-17T21:37:09.585Z,13.32
2022-11-17T21:39:42.325Z,9.77
2022-11-17T21:42:10.952Z,14.27
2022-11-17T21:44:41.316Z,14.13
2022-11-17T21:47:09.920Z,13.15
2022-11-17T21:49:38.563Z,12.05
2022-11-17T21:52:09.867Z,14.48
2022-11-17T21:54:44.398Z,12.68
2022-11-17T21:57:13.235Z,12.00
2022-11-17T21:59:41.945Z,14.20
2022-11-17T22:02:11.481Z,13.23
2022-11-17T22:05:08.788Z,11.30
2022-11-17T22:07:46.235Z,11.60
2022-11-17T22:10:15.060Z,10.43
2022-11-17T22:13:09.722Z,11.82
2022-11-17T22:15:44.558Z,12.43
2022-11-17T22:18:13.248Z,14.15
2022-11-17T22:20:42.068Z,13.65
2022-11-17T22:23:12.025Z,12.60
2022-11-17T22:25:45.517Z,14.65
2022-11-17T22:28:15.099Z,12.27
2022-11-17T22:30:43.749Z,13.75
2022-11-17T22:33:29.073Z,10.40
2022-11-17T22:36:01.534Z,11.70
2022-11-17T22:38:31.976Z,13.13
2022-11-17T22:41:02.246Z,14.95
2022-11-17T22:43:32.086Z,13.75
2022-11-17T22:46:04.903Z,14.90
2022-11-17T22:48:36.346Z,13.60
2022-11-17T22:51:08.236Z,13.63
2022-11-17T22:53:38.222Z,14.25
2022-11-17T22:56:09.475Z,10.63
2022-11-17T22:58:38.116Z,13.70
2022-11-17T23:01:08.686Z,12.55
2022-11-17T23:03:37.351Z,15.48
2022-11-17T23:06:07.129Z,15.68
2022-11-17T23:08:37.300Z,13.68
2022-11-17T23:11:35.622Z,13.13
2022-11-17T23:13:57.822Z,13.25
2022-11-17T23:16:27.077Z,15.63
2022-11-17T23:18:56.745Z,13.88
2022-11-17T23:21:25.638Z,16.58
2022-11-17T23:23:55.853Z,13.55
2022-11-17T23:26:24.745Z,12.40
2022-11-17T23:28:53.384Z,13.25
2022-11-17T23:31:21.981Z,12.88
2022-11-17T23:33:53.749Z,15.38
2022-11-17T23:36:24.058Z,15.35
2022-11-17T23:38:57.610Z,13.65
2022-11-17T23:41:26.545Z,15.50
2022-11-17T23:43:56.099Z,12.23
2022-11-17T23:46:27.379Z,12.50
2022-11-17T23:48:57.235Z,13.65
2022-11-17T23:51:29.817Z,12.75
2022-11-17T23:54:02.845Z,14.00
2022-11-17T23:56:34.586Z,13.75
2022-11-17T23:59:03.684Z,14.30
